createdAt,value
2023-02-01T00:00:31.338Z,96166.25
2023-02-01T00:05:33.805Z,96165.53
2023-02-01T00:10:36.118Z,96159.22
2023-02-01T00:15:38.479Z,96161.88
2023-02-01T00:20:40.815Z,96159.63
2023-02-01T00:25:43.189Z,96168.06
2023-02-01T00:30:45.561Z,96160.84
2023-02-01T00:35:47.835Z,96154.31
2023-02-01T00:40:50.172Z,96158.53
2023-02-01T00:45:52.594Z,96153.78
2023-02-01T00:50:54.903Z,96160.66
2023-02-01T00:55:57.252Z,96144.13
2023-02-01T01:00:59.783Z,96148.47
2023-02-01T01:06:02.261Z,96143.84
2023-02-01T01:11:04.813Z,96162.28
2023-02-01T01:16:07.187Z,96156.16
2023-02-01T01:21:09.729Z,96146.13
2023-02-01T01:26:12.173Z,96146.34
2023-02-01T01:31:14.761Z,96146.53
2023-02-01T01:36:17.217Z,96143.63
2023-02-01T01:41:19.527Z,96130.13
2023-02-01T01:46:22.008Z,96129.69
2023-02-01T01:51:24.408Z,96116.69
2023-02-01T01:56:26.710Z,96103.59
2023-02-01T02:01:28.980Z,96103.00
2023-02-01T02:06:31.386Z,96102.03
2023-02-01T02:11:33.716Z,96107.81
2023-02-01T02:16:36.147Z,96094.38
2023-02-01T02:21:38.477Z,96109.44
2023-02-01T02:26:40.923Z,96116.81
2023-02-01T02:31:43.483Z,96126.94
2023-02-01T02:36:45.917Z,96127.38
2023-02-01T02:42:05.988Z,96124.16
2023-02-01T02:47:26.772Z,96115.97
2023-02-01T02:52:46.793Z,96111.25
2023-02-01T02:58:06.937Z,96095.13
2023-02-01T03:03:26.692Z,96098.78
2023-02-01T03:08:28.981Z,96091.41
2023-02-01T03:13:31.347Z,96081.16
2023-02-01T03:18:33.774Z,96077.41
2023-02-01T03:23:36.058Z,96075.22
2023-02-01T03:28:38.391Z,96074.13
2023-02-01T03:33:40.907Z,96068.41
2023-02-01T03:38:43.391Z,96072.88
2023-02-01T03:43:45.741Z,96065.94
2023-02-01T03:48:48.155Z,96048.16
2023-02-01T03:53:50.700Z,96056.06
2023-02-01T03:59:00.362Z,96045.47
2023-02-01T04:04:02.683Z,96053.06
2023-02-01T04:09:05.081Z,96056.28
2023-02-01T04:14:07.433Z,96046.31
2023-02-01T04:19:09.755Z,96052.38
2023-02-01T04:24:12.217Z,96060.22
2023-02-01T04:29:14.609Z,96047.53
2023-02-01T04:34:16.923Z,96031.81
2023-02-01T04:39:19.296Z,96034.31
2023-02-01T04:44:21.655Z,96041.88
2023-02-01T04:49:23.949Z,96047.19
2023-02-01T04:54:26.288Z,96050.59
2023-02-01T04:59:29.860Z,96041.19
2023-02-01T05:04:32.258Z,96047.25
2023-02-01T05:09:34.931Z,96051.97
2023-02-01T05:14:37.240Z,96050.34
2023-02-01T05:19:39.651Z,96051.38
2023-02-01T05:24:42.018Z,96050.81
2023-02-01T05:29:44.322Z,96060.78
2023-02-01T05:34:46.845Z,96069.63
2023-02-01T05:39:49.425Z,96061.38
2023-02-01T05:44:51.841Z,96044.66
2023-02-01T05:49:54.202Z,96050.34
2023-02-01T05:54:56.488Z,96053.13
2023-02-01T06:00:00.436Z,96048.66
2023-02-01T06:05:03.074Z,96036.84
2023-02-01T06:10:05.653Z,96023.94
2023-02-01T06:15:07.999Z,96037.66
2023-02-01T06:20:12.051Z,96011.91
2023-02-01T06:25:14.550Z,96022.94
2023-02-01T06:30:16.978Z,96027.78
2023-02-01T06:35:19.440Z,96030.44
2023-02-01T06:40:22.173Z,96034.88
2023-02-01T06:45:24.755Z,96039.97
2023-02-01T06:50:27.094Z,96041.59
2023-02-01T06:55:29.525Z,96028.91
2023-02-01T07:00:31.930Z,96015.56
2023-02-01T07:05:34.597Z,96005.38
2023-02-01T07:10:36.952Z,96027.66
2023-02-01T07:15:39.235Z,96010.41
2023-02-01T07:20:41.795Z,96025.47
2023-02-01T07:25:44.231Z,95995.66
2023-02-01T07:30:51.700Z,95983.56
2023-02-01T07:35:54.154Z,95997.00
2023-02-01T07:40:56.620Z,95993.66
2023-02-01T07:45:59.097Z,95993.00
2023-02-01T07:51:01.561Z,96002.00
2023-02-01T07:56:03.843Z,96010.13
2023-02-01T08:01:22.024Z,96027.22
2023-02-01T08:06:24.593Z,96033.88
2023-02-01T08:11:26.991Z,96047.44
2023-02-01T08:16:29.437Z,96051.22
2023-02-01T08:21:37.364Z,96050.56
2023-02-01T08:26:39.869Z,96044.78
2023-02-01T08:31:42.852Z,96063.78
2023-02-01T08:36:45.326Z,96048.53
2023-02-01T08:42:09.358Z,96062.94
2023-02-01T08:47:12.298Z,96054.78
2023-02-01T08:52:16.348Z,96052.25
2023-02-01T08:57:18.751Z,96047.69
2023-02-01T09:02:21.164Z,96038.31
2023-02-01T09:07:23.668Z,96046.69
2023-02-01T09:12:26.068Z,96049.81
2023-02-01T09:22:31.777Z,96031.19
2023-02-01T09:27:34.092Z,96038.84
2023-02-01T09:32:36.612Z,96044.63
2023-02-01T09:37:39.505Z,96042.78
2023-02-01T09:42:41.927Z,96042.78
2023-02-01T09:47:44.354Z,96050.22
2023-02-01T09:52:46.807Z,96064.09
2023-02-01T09:57:49.108Z,96059.47
2023-02-01T10:02:51.533Z,96058.22
2023-02-01T10:07:53.884Z,96066.88
2023-02-01T10:12:56.448Z,96068.50
2023-02-01T10:17:59.118Z,96071.28
2023-02-01T10:23:19.431Z,96067.81
2023-02-01T10:28:25.044Z,96072.56
2023-02-01T10:33:27.446Z,96078.94
2023-02-01T10:38:30.013Z,96078.09
2023-02-01T10:43:32.564Z,96078.00
2023-02-01T10:48:34.856Z,96087.03
2023-02-01T10:53:38.235Z,96082.97
2023-02-01T10:58:40.713Z,96074.84
2023-02-01T11:03:43.426Z,96088.88
2023-02-01T11:08:46.096Z,96093.06
2023-02-01T11:13:48.414Z,96077.41
2023-02-01T11:18:51.049Z,96095.84
2023-02-01T11:23:53.478Z,96099.53
2023-02-01T11:28:55.798Z,96093.00
2023-02-01T11:33:58.185Z,96073.91
2023-02-01T11:39:00.495Z,96099.91
2023-02-01T11:44:03.069Z,96087.75
2023-02-01T11:49:05.678Z,96073.28
2023-02-01T11:54:08.129Z,96074.34
2023-02-01T11:59:10.696Z,96072.47
2023-02-01T12:04:14.061Z,96065.09
2023-02-01T12:09:16.405Z,96054.56
2023-02-01T12:14:20.247Z,96055.72
2023-02-01T12:19:22.690Z,96058.72
2023-02-01T12:24:24.978Z,96060.22
2023-02-01T12:29:27.453Z,96053.63
2023-02-01T12:34:29.989Z,96055.66
2023-02-01T12:39:32.370Z,96047.84
2023-02-01T12:44:34.687Z,96062.44
2023-02-01T12:49:37.013Z,96044.63
2023-02-01T12:54:39.748Z,96015.69
2023-02-01T12:59:42.707Z,96022.38
2023-02-01T13:04:45.106Z,96014.56
2023-02-01T13:09:47.508Z,96001.28
2023-02-01T13:14:51.375Z,95997.59
2023-02-01T13:19:53.724Z,96022.59
2023-02-01T13:24:56.159Z,96011.84
2023-02-01T13:29:58.472Z,96018.75
2023-02-01T13:35:01.006Z,96009.97
2023-02-01T13:40:04.100Z,96006.72
2023-02-01T13:45:06.492Z,96000.78
2023-02-01T13:50:08.965Z,96019.84
2023-02-01T13:55:11.667Z,96022.78
2023-02-01T14:00:14.260Z,96019.38
2023-02-01T14:05:16.563Z,96022.63
2023-02-01T14:10:18.915Z,96031.72
2023-02-01T14:15:23.116Z,96024.31
2023-02-01T14:20:26.900Z,96015.31
2023-02-01T14:25:30.493Z,96009.28
2023-02-01T14:30:32.917Z,96023.75
2023-02-01T14:35:35.433Z,96029.50
2023-02-01T14:40:37.855Z,96015.88
2023-02-01T14:45:40.964Z,96022.09
2023-02-01T14:50:43.660Z,96020.38
2023-02-01T14:55:48.499Z,95996.88
2023-02-01T15:00:51.819Z,96019.19
2023-02-01T15:05:54.360Z,96017.84
2023-02-01T15:10:57.082Z,96026.41
2023-02-01T15:15:59.441Z,96022.81
2023-02-01T15:21:09.375Z,96018.28
2023-02-01T15:26:24.330Z,96042.22
2023-02-01T15:31:27.121Z,96030.28
2023-02-01T15:36:29.855Z,96038.22
2023-02-01T15:41:32.252Z,96054.75
2023-02-01T15:46:34.819Z,96035.66
2023-02-01T15:51:37.289Z,96040.66
2023-02-01T15:56:44.901Z,96041.56
2023-02-01T16:01:47.325Z,96049.38
2023-02-01T16:06:50.162Z,96055.06
2023-02-01T16:11:52.455Z,96052.91
2023-02-01T16:16:54.806Z,96067.25
2023-02-01T16:21:57.185Z,96073.59
2023-02-01T16:26:59.573Z,96077.28
2023-02-01T16:32:02.098Z,96081.88
2023-02-01T16:37:04.429Z,96096.38
2023-02-01T16:42:06.827Z,96082.38
2023-02-01T16:47:09.406Z,96071.16
2023-02-01T16:52:11.750Z,96049.25
2023-02-01T16:57:14.574Z,96061.94
2023-02-01T17:02:17.250Z,96062.53
2023-02-01T17:07:19.952Z,96065.56
2023-02-01T17:12:22.473Z,96055.50
2023-02-01T17:17:37.728Z,96054.03
2023-02-01T17:22:40.762Z,96058.31
2023-02-01T17:27:43.200Z,96047.59
2023-02-01T17:32:45.854Z,96038.00
2023-02-01T17:37:48.269Z,96055.72
2023-02-01T17:42:52.438Z,96051.44
2023-02-01T17:47:54.964Z,96055.41
2023-02-01T17:52:57.318Z,96033.56
2023-02-01T17:58:01.019Z,96044.03
2023-02-01T18:03:03.807Z,96043.16
2023-02-01T18:08:06.191Z,96046.63
2023-02-01T18:13:08.678Z,96050.56
2023-02-01T18:18:10.990Z,96056.03
2023-02-01T18:23:13.399Z,96045.25
2023-02-01T18:28:16.412Z,96054.16
2023-02-01T18:33:18.881Z,96043.75
2023-02-01T18:38:21.203Z,96068.13
2023-02-01T18:43:23.477Z,96057.06
2023-02-01T18:48:25.990Z,96025.16
2023-02-01T18:53:28.485Z,96046.19
2023-02-01T18:58:31.883Z,96031.06
2023-02-01T19:03:34.246Z,96031.63
2023-02-01T19:08:43.938Z,96040.19
2023-02-01T19:13:46.253Z,96019.84
2023-02-01T19:18:48.626Z,96021.47
2023-02-01T19:23:50.982Z,96012.69
2023-02-01T19:28:53.395Z,96009.09
2023-02-01T19:33:55.851Z,96012.13
2023-02-01T19:38:58.227Z,96014.63
2023-02-01T19:44:00.664Z,96015.81
2023-02-01T19:49:03.091Z,95994.41
2023-02-01T19:54:06.402Z,95976.25
2023-02-01T19:59:09.046Z,96008.72
2023-02-01T20:04:11.785Z,96018.91
2023-02-01T20:09:14.223Z,96044.03
2023-02-01T20:14:16.634Z,96038.38
2023-02-01T20:19:19.743Z,96047.16
2023-02-01T20:24:22.168Z,96043.88
2023-02-01T20:29:25.843Z,96036.50
2023-02-01T20:34:28.246Z,96050.97
2023-02-01T20:39:30.612Z,96052.38
2023-02-01T20:44:32.968Z,96054.09
2023-02-01T20:49:35.854Z,96037.91
2023-02-01T20:54:38.513Z,96066.34
2023-02-01T20:59:40.946Z,96059.03
2023-02-01T21:04:43.341Z,96047.50
2023-02-01T21:09:45.883Z,96047.59
2023-02-01T21:14:48.529Z,96031.06
2023-02-01T21:19:51.040Z,96019.69
2023-02-01T21:24:53.533Z,96034.69
2023-02-01T21:29:56.036Z,96033.88
2023-02-01T21:34:59.285Z,96024.47
2023-02-01T21:40:01.921Z,96013.72
2023-02-01T21:45:04.397Z,96027.75
2023-02-01T21:50:07.190Z,96016.31
2023-02-01T21:55:10.338Z,96019.16
2023-02-01T22:00:13.507Z,96020.88
2023-02-01T22:05:17.224Z,96033.88
2023-02-01T22:10:19.628Z,96039.06
2023-02-01T22:15:22.277Z,96034.47
2023-02-01T22:20:24.825Z,96048.63
2023-02-01T22:25:28.600Z,96017.78
2023-02-01T22:30:31.418Z,96041.16
2023-02-01T22:35:34.076Z,96040.00
2023-02-01T22:40:36.476Z,96019.78
2023-02-01T22:45:38.762Z,96036.88
2023-02-01T22:50:41.078Z,96026.34
2023-02-01T22:55:45.486Z,96040.09
2023-02-01T23:00:47.878Z,96031.50
2023-02-01T23:05:50.344Z,96020.88
2023-02-01T23:10:52.783Z,96014.75
2023-02-01T23:15:55.204Z,96004.72
2023-02-01T23:20:57.783Z,96014.53
2023-02-01T23:26:00.471Z,96029.22
2023-02-01T23:31:04.614Z,96022.50
2023-02-01T23:36:07.570Z,96025.59
2023-02-01T23:41:09.945Z,96030.34
2023-02-01T23:46:13.484Z,96020.59
2023-02-01T23:51:16.148Z,96012.41
2023-02-01T23:56:18.747Z,96028.72
